Time;durP1;ratioP1;P1;durP2;ratioP2;P2;SDS_P1;SDS_P2;PMS_P1;PMS_P2;Temp;Humidity;BMP_temperature;BMP_pressure;BME280_temperature;BME280_humidity;BME280_pressure;Samples;Min_cycle;Max_cycle;Signal;HPM_P1;HPM_P2
2022/12/10 00:01:27;;;;;;;3.13;1.20;;;23.00;48.80;;;;;;4124616;28;20042;-44
2022/12/10 00:03:50;;;;;;;4.68;1.35;;;23.10;49.00;;;;;;4121786;28;20463;-47
2022/12/10 00:06:16;;;;;;;3.30;1.23;;;23.20;48.80;;;;;;4122762;28;20504;-52
2022/12/10 00:08:39;;;;;;;7.18;1.30;;;23.20;48.90;;;;;;4122681;28;20850;-47
2022/12/10 00:11:06;;;;;;;9.02;1.65;;;23.30;49.20;;;;;;4117196;28;20074;-54
2022/12/10 00:13:29;;;;;;;9.02;1.77;;;23.30;49.40;;;;;;4120351;28;20042;-45
2022/12/10 00:15:51;;;;;;;5.05;1.40;;;23.30;49.40;;;;;;4117755;28;20046;-43
2022/12/10 00:18:14;;;;;;;3.40;1.27;;;23.30;48.60;;;;;;4114706;28;20045;-48
2022/12/10 00:20:37;;;;;;;3.22;0.93;;;23.30;48.20;;;;;;4117223;28;20042;-41
2022/12/10 00:23:00;;;;;;;5.68;1.52;;;23.20;48.00;;;;;;4117963;28;20121;-43
2022/12/10 00:25:22;;;;;;;4.18;0.95;;;23.20;48.90;;;;;;4118529;28;20539;-43
2022/12/10 00:27:45;;;;;;;3.13;1.23;;;23.10;48.40;;;;;;4116126;28;20031;-42
2022/12/10 00:30:08;;;;;;;4.78;1.25;;;23.10;48.40;;;;;;4110066;28;20117;-42
2022/12/10 00:32:31;;;;;;;2.73;1.33;;;23.00;48.20;;;;;;4118174;28;20409;-47
2022/12/10 00:34:53;;;;;;;2.35;0.75;;;23.00;48.60;;;;;;4119398;28;20498;-43
2022/12/10 00:37:16;;;;;;;3.33;1.05;;;22.90;48.60;;;;;;4116553;28;20038;-48
2022/12/10 00:39:38;;;;;;;2.42;0.70;;;22.90;48.70;;;;;;4117055;28;20734;-41
2022/12/10 00:42:01;;;;;;;4.50;1.40;;;22.90;48.80;;;;;;4119978;28;20031;-43
2022/12/10 00:44:23;;;;;;;4.72;1.50;;;22.90;48.90;;;;;;4115399;28;20324;-44
2022/12/10 00:46:47;;;;;;;3.30;1.20;;;22.80;49.00;;;;;;4121687;28;20061;-43
2022/12/10 00:49:10;;;;;;;6.15;1.65;;;22.80;49.00;;;;;;4120169;28;20035;-42
2022/12/10 00:51:33;;;;;;;4.45;1.27;;;22.80;49.00;;;;;;4121619;28;20041;-43
2022/12/10 00:53:58;;;;;;;3.53;1.20;;;22.80;49.10;;;;;;4120913;28;20478;-47
2022/12/10 00:56:23;;;;;;;6.50;1.90;;;22.80;49.20;;;;;;4113169;28;20133;-43
2022/12/10 00:58:47;;;;;;;3.85;1.40;;;22.80;49.20;;;;;;4121423;28;20231;-45
2022/12/10 01:01:11;;;;;;;6.90;1.30;;;22.70;49.20;;;;;;4118184;28;20501;-45
2022/12/10 01:03:33;;;;;;;;;;;22.70;49.20;;;;;;4120855;28;20023;-43
2022/12/10 01:05:56;;;;;;;2.92;0.77;;;22.70;49.30;;;;;;4111873;28;19957;-45
2022/12/10 01:08:18;;;;;;;4.70;1.27;;;22.70;49.30;;;;;;4121516;28;20046;-46
2022/12/10 01:10:41;;;;;;;4.65;1.42;;;22.70;49.30;;;;;;4120933;28;20551;-44
2022/12/10 01:13:04;;;;;;;2.97;0.90;;;22.60;49.40;;;;;;4120682;28;20054;-43
2022/12/10 01:15:27;;;;;;;3.78;1.20;;;22.60;49.40;;;;;;4115800;28;20046;-43
2022/12/10 01:17:49;;;;;;;2.20;0.88;;;22.60;49.40;;;;;;4124741;28;20120;-43
2022/12/10 01:20:12;;;;;;;2.63;1.23;;;22.70;49.40;;;;;;4113578;28;20113;-42
2022/12/10 01:22:35;;;;;;;1.25;0.60;;;22.70;49.40;;;;;;4124673;28;20058;-43
2022/12/10 01:24:57;;;;;;;2.30;0.85;;;22.70;49.40;;;;;;4126256;28;20042;-44
2022/12/10 01:27:19;;;;;;;2.65;1.00;;;22.70;49.60;;;;;;4126395;28;20030;-44
2022/12/10 01:29:42;;;;;;;3.65;1.30;;;22.80;49.30;;;;;;4124891;28;20530;-44
2022/12/10 01:32:05;;;;;;;3.95;0.98;;;22.80;49.20;;;;;;4125316;28;20034;-43
2022/12/10 01:34:28;;;;;;;3.53;0.85;;;22.80;49.40;;;;;;4124413;28;20046;-42
2022/12/10 01:36:52;;;;;;;1.87;0.93;;;22.90;49.40;;;;;;4125134;28;20557;-46
2022/12/10 01:39:18;;;;;;;2.08;0.73;;;22.90;49.30;;;;;;4126554;28;20053;-40
2022/12/10 01:41:48;;;;;;;4.03;1.02;;;22.80;49.30;;;;;;4130014;28;20108;-48
2022/12/10 01:44:10;;;;;;;3.42;1.05;;;22.80;49.40;;;;;;4126121;28;20322;-43
2022/12/10 01:46:38;;;;;;;5.80;1.05;;;22.80;49.30;;;;;;4126271;28;20142;-43
2022/12/10 01:49:05;;;;;;;2.15;0.90;;;22.80;49.40;;;;;;4126121;28;20037;-44
2022/12/10 01:51:30;;;;;;;3.92;1.23;;;22.80;49.40;;;;;;4126331;28;20038;-48
2022/12/10 01:53:54;;;;;;;2.78;0.88;;;22.80;49.30;;;;;;4125155;28;20501;-47
2022/12/10 01:56:19;;;;;;;2.13;0.73;;;22.80;49.30;;;;;;4115860;28;20065;-48
2022/12/10 01:58:41;;;;;;;1.88;0.98;;;22.80;49.20;;;;;;4125940;28;20152;-48
2022/12/10 02:01:24;;;;;;;2.72;0.90;;;22.80;49.30;;;;;;4122801;28;20457;-47
2022/12/10 02:04:22;;;;;;;2.42;0.90;;;22.90;49.30;;;;;;4125917;28;20042;-46
2022/12/10 02:07:17;;;;;;;2.45;1.15;;;22.80;49.20;;;;;;4093759;28;20127;-48
2022/12/10 02:09:46;;;;;;;2.60;0.85;;;22.90;49.30;;;;;;4121638;28;20042;-45
2022/12/10 02:12:21;;;;;;;2.30;0.90;;;22.90;49.30;;;;;;4123741;28;20085;-44
2022/12/10 02:15:01;;;;;;;2.58;1.10;;;22.90;49.40;;;;;;4133755;28;20582;-48
2022/12/10 02:17:44;;;;;;;2.55;1.13;;;22.90;49.30;;;;;;4131899;28;20350;-46
2022/12/10 02:20:07;;;;;;;2.40;1.17;;;22.90;49.40;;;;;;4122610;28;20042;-49
2022/12/10 02:22:34;;;;;;;3.70;1.33;;;22.90;49.30;;;;;;4119018;28;20112;-43
2022/12/10 02:24:59;;;;;;;1.48;0.88;;;23.00;49.30;;;;;;4119629;28;20820;-48
2022/12/10 02:27:50;;;;;;;2.33;0.95;;;23.00;49.30;;;;;;4125954;28;20508;-49
2022/12/10 02:30:13;;;;;;;1.92;0.93;;;23.00;50.10;;;;;;4121322;28;20046;-43
2022/12/10 02:32:41;;;;;;;3.08;1.33;;;23.00;49.20;;;;;;4125968;28;20035;-44
2022/12/10 02:35:10;;;;;;;1.92;1.00;;;23.10;49.20;;;;;;4125256;28;20050;-42
2022/12/10 02:37:36;;;;;;;1.75;1.17;;;23.10;49.60;;;;;;4124426;28;20462;-42
2022/12/10 02:40:04;;;;;;;2.47;1.35;;;23.10;49.40;;;;;;4124791;28;20057;-43
2022/12/10 02:42:28;;;;;;;5.97;1.42;;;23.10;49.60;;;;;;4125695;28;20113;-45
2022/12/10 02:44:52;;;;;;;3.60;1.20;;;23.20;50.00;;;;;;4124332;28;20045;-44
2022/12/10 02:47:17;;;;;;;2.08;1.02;;;23.20;49.30;;;;;;4126119;28;20038;-46
2022/12/10 02:49:41;;;;;;;2.25;1.10;;;23.20;49.40;;;;;;4124281;28;20034;-48
2022/12/10 02:52:12;;;;;;;;;;;23.20;49.20;;;;;;4125910;28;20042;-41
2022/12/10 02:54:43;;;;;;;1.85;0.82;;;23.20;49.20;;;;;;4123076;28;20369;-45
2022/12/10 02:57:29;;;;;;;2.25;1.00;;;23.20;49.20;;;;;;4120131;28;20549;-45
2022/12/10 03:00:24;;;;;;;2.47;0.90;;;23.20;49.50;;;;;;4119980;28;20042;-49
2022/12/10 03:03:19;;;;;;;2.90;0.90;;;23.30;49.30;;;;;;4115834;28;20046;-46
2022/12/10 03:05:52;;;;;;;2.95;1.20;;;23.30;49.40;;;;;;4135565;28;20034;-46
2022/12/10 03:08:31;;;;;;;2.63;1.15;;;23.30;49.30;;;;;;4125904;28;20038;-44
2022/12/10 03:11:18;;;;;;;1.77;0.80;;;23.30;49.40;;;;;;4122033;28;20069;-45
2022/12/10 03:13:50;;;;;;;1.80;0.85;;;23.30;49.20;;;;;;4120553;28;20425;-45
2022/12/10 03:16:14;;;;;;;2.03;1.17;;;23.30;49.20;;;;;;4124261;28;20050;-48
2022/12/10 03:18:40;;;;;;;3.17;1.20;;;23.30;49.20;;;;;;4114355;28;20089;-45
2022/12/10 03:21:06;;;;;;;1.80;0.90;;;23.30;49.30;;;;;;4125146;28;20097;-45
2022/12/10 03:23:30;;;;;;;3.63;1.20;;;23.30;49.30;;;;;;4119119;28;20085;-42
2022/12/10 03:25:52;;;;;;;3.70;1.17;;;23.30;49.30;;;;;;4124236;28;20489;-42
2022/12/10 03:28:17;;;;;;;2.17;1.10;;;23.30;49.30;;;;;;4112539;28;20031;-43
2022/12/10 03:30:41;;;;;;;2.75;1.25;;;23.30;49.20;;;;;;4114105;28;20514;-45
2022/12/10 03:33:04;;;;;;;2.95;1.23;;;23.30;49.20;;;;;;4128323;28;20049;-44
2022/12/10 03:35:27;;;;;;;3.22;1.08;;;23.40;49.10;;;;;;4119264;28;20074;-42
2022/12/10 03:37:50;;;;;;;2.55;1.13;;;23.40;48.90;;;;;;4123384;28;20042;-40
2022/12/10 03:40:13;;;;;;;3.67;1.50;;;23.40;48.80;;;;;;4122506;28;20353;-43
2022/12/10 03:42:37;;;;;;;3.97;1.20;;;23.50;48.70;;;;;;4127676;28;20034;-45
2022/12/10 03:45:00;;;;;;;2.33;1.08;;;23.40;48.90;;;;;;4122943;28;20530;-41
2022/12/10 03:47:23;;;;;;;4.68;1.40;;;23.40;48.90;;;;;;4125515;28;20053;-45
2022/12/10 03:49:46;;;;;;;2.65;0.95;;;23.40;48.80;;;;;;4122025;28;20407;-43
2022/12/10 03:52:08;;;;;;;3.70;1.05;;;23.40;48.80;;;;;;4124552;28;20050;-43
2022/12/10 03:54:31;;;;;;;3.60;0.88;;;23.50;48.80;;;;;;4122284;28;20092;-40
2022/12/10 03:56:54;;;;;;;4.22;1.00;;;23.50;48.80;;;;;;4123822;28;20054;-43
2022/12/10 03:59:16;;;;;;;1.83;1.10;;;23.50;48.70;;;;;;4120858;28;20042;-42
2022/12/10 04:01:39;;;;;;;4.07;1.45;;;23.50;48.70;;;;;;4124931;28;20046;-42
2022/12/10 04:04:03;;;;;;;4.15;1.48;;;23.50;48.50;;;;;;4123356;28;20042;-45
2022/12/10 04:06:26;;;;;;;1.75;0.73;;;23.50;48.60;;;;;;4117501;28;20095;-42
2022/12/10 04:08:49;;;;;;;4.13;1.77;;;23.50;48.90;;;;;;4122876;28;20121;-41
2022/12/10 04:11:12;;;;;;;2.70;1.05;;;23.50;48.80;;;;;;4121517;28;20030;-40
2022/12/10 04:16:28;;;;;;;4.60;1.10;;;23.50;48.80;;;;;;4122841;28;19926;-41
2022/12/10 04:18:51;;;;;;;2.55;0.80;;;23.50;48.70;;;;;;4120615;28;20129;-41
2022/12/10 04:26:52;;;;;;;5.28;1.52;;;23.60;48.60;;;;;;4118050;28;20121;-40
2022/12/10 04:29:15;;;;;;;4.13;1.60;;;23.70;48.30;;;;;;4115810;28;20038;-40
2022/12/10 04:31:37;;;;;;;3.33;1.25;;;23.70;48.20;;;;;;4111695;28;20050;-42
2022/12/10 04:34:00;;;;;;;3.80;1.50;;;23.70;48.30;;;;;;4118512;28;20030;-41
2022/12/10 04:36:22;;;;;;;2.85;1.10;;;23.80;48.30;;;;;;4118343;28;20058;-41
2022/12/10 04:38:45;;;;;;;3.17;1.17;;;23.80;48.30;;;;;;4117526;28;20074;-41
2022/12/10 04:41:15;;;;;;;3.70;1.33;;;23.80;48.30;;;;;;4118039;28;20030;-43
2022/12/10 04:43:37;;;;;;;4.88;1.35;;;23.90;48.70;;;;;;4117550;28;20513;-44
2022/12/10 04:46:00;;;;;;;2.13;0.98;;;24.00;48.60;;;;;;4119758;28;20058;-44
2022/12/10 04:48:22;;;;;;;3.08;0.95;;;24.00;48.70;;;;;;4119838;28;20049;-44
2022/12/10 04:50:47;;;;;;;2.33;1.20;;;24.10;49.60;;;;;;4119575;28;20121;-43
2022/12/10 04:53:09;;;;;;;3.72;1.40;;;24.10;48.70;;;;;;4117761;28;20121;-46
2022/12/10 04:55:32;;;;;;;4.72;1.10;;;24.20;48.50;;;;;;4120227;28;20108;-43
2022/12/10 04:57:54;;;;;;;3.80;1.10;;;24.20;48.10;;;;;;4108849;28;20034;-41
2022/12/10 05:00:17;;;;;;;6.30;1.17;;;24.20;48.10;;;;;;4119362;28;20043;-40
2022/12/10 05:02:40;;;;;;;3.45;1.20;;;24.20;48.20;;;;;;4111138;28;20117;-46
2022/12/10 05:05:02;;;;;;;3.58;0.95;;;24.20;48.40;;;;;;4119496;28;20043;-45
2022/12/10 05:07:25;;;;;;;3.47;1.25;;;24.30;48.40;;;;;;4118337;28;20039;-44
2022/12/10 05:09:47;;;;;;;3.10;1.23;;;24.30;48.20;;;;;;4119753;28;20065;-43
2022/12/10 05:12:10;;;;;;;5.47;1.20;;;24.40;48.10;;;;;;4117457;28;20057;-43
2022/12/10 05:14:32;;;;;;;2.95;1.13;;;24.40;48.60;;;;;;4117828;28;20038;-44
2022/12/10 05:16:55;;;;;;;4.32;1.08;;;24.50;47.70;;;;;;4116027;28;20074;-46
2022/12/10 05:19:22;;;;;;;3.22;1.08;;;24.50;47.70;;;;;;4121491;28;20030;-42
2022/12/10 05:24:25;;;;;;;3.97;1.17;;;24.60;47.40;;;;;;4121516;28;20093;-41
2022/12/10 05:26:50;;;;;;;2.63;0.98;;;24.60;47.50;;;;;;4118903;28;20046;-41
2022/12/10 05:29:14;;;;;;;3.38;1.10;;;24.50;47.50;;;;;;4119890;28;20137;-41
2022/12/10 05:31:36;;;;;;;4.68;1.10;;;24.40;47.50;;;;;;4122087;28;20043;-45
2022/12/10 05:34:00;;;;;;;4.38;1.30;;;24.40;47.80;;;;;;4122207;28;20050;-46
2022/12/10 05:36:28;;;;;;;4.88;1.40;;;24.40;47.70;;;;;;4123079;28;20041;-42
2022/12/10 05:38:51;;;;;;;4.55;1.30;;;24.50;47.70;;;;;;4122166;28;20097;-43
2022/12/10 05:41:19;;;;;;;5.00;1.35;;;24.60;47.70;;;;;;4122415;28;20589;-42
2022/12/10 05:43:43;;;;;;;2.63;1.08;;;24.60;47.50;;;;;;4121778;28;20042;-47
2022/12/10 05:46:12;;;;;;;3.08;0.93;;;24.60;47.50;;;;;;4125511;28;20038;-43
2022/12/10 05:48:35;;;;;;;5.53;0.95;;;24.70;47.30;;;;;;4125159;28;20049;-47
2022/12/10 05:50:58;;;;;;;3.20;1.10;;;24.80;47.10;;;;;;4130041;28;20382;-42
2022/12/10 05:53:21;;;;;;;6.07;1.02;;;24.80;46.70;;;;;;4123414;28;20034;-42
2022/12/10 05:55:43;;;;;;;3.92;1.20;;;24.70;46.50;;;;;;4124903;28;20529;-43
2022/12/10 05:58:06;;;;;;;3.33;1.05;;;24.70;46.90;;;;;;4123988;28;20045;-45
2022/12/10 06:00:29;;;;;;;3.83;0.98;;;24.80;46.90;;;;;;4122647;28;20422;-42
2022/12/10 06:02:52;;;;;;;2.88;1.20;;;24.90;46.60;;;;;;4115197;28;20053;-41
2022/12/10 06:05:14;;;;;;;2.55;1.02;;;24.90;46.40;;;;;;4123827;28;20045;-42
2022/12/10 06:07:37;;;;;;;4.28;1.42;;;25.00;46.30;;;;;;4115835;28;20077;-45
2022/12/10 06:09:59;;;;;;;3.17;1.08;;;25.10;46.40;;;;;;4125148;28;20041;-42
2022/12/10 06:12:22;;;;;;;2.65;1.13;;;25.20;46.10;;;;;;4116044;28;20034;-42
2022/12/10 06:14:45;;;;;;;2.38;0.98;;;25.20;46.20;;;;;;4124867;28;20045;-42
2022/12/10 06:17:07;;;;;;;3.53;1.27;;;25.20;46.00;;;;;;4129098;28;20042;-43
2022/12/10 06:19:30;;;;;;;3.20;1.08;;;25.20;45.90;;;;;;4128275;28;20121;-44
2022/12/10 06:21:52;;;;;;;3.67;1.13;;;25.20;46.10;;;;;;4115203;28;20565;-43
2022/12/10 06:24:15;;;;;;;2.75;1.17;;;25.20;46.00;;;;;;4125924;28;20041;-46
2022/12/10 06:26:37;;;;;;;5.18;1.42;;;25.30;45.90;;;;;;4118355;28;20046;-42
2022/12/10 06:29:00;;;;;;;4.40;1.25;;;25.30;46.10;;;;;;4120107;28;20049;-45
2022/12/10 06:31:23;;;;;;;5.28;1.70;;;25.30;46.00;;;;;;4124444;28;20038;-44
2022/12/10 06:33:46;;;;;;;2.53;1.20;;;25.30;46.00;;;;;;4121841;28;20465;-42
2022/12/10 06:36:10;;;;;;;2.58;1.15;;;25.20;45.80;;;;;;4124792;28;20461;-41
2022/12/10 06:38:34;;;;;;;3.60;1.20;;;25.20;46.00;;;;;;4124395;28;20089;-41
2022/12/10 06:40:56;;;;;;;6.07;2.15;;;25.20;46.00;;;;;;4124418;28;20074;-45
2022/12/10 06:43:19;;;;;;;3.40;1.30;;;25.10;46.20;;;;;;4123805;28;20145;-43
2022/12/10 06:45:43;;;;;;;3.25;1.30;;;25.10;45.90;;;;;;4124608;28;20065;-44
2022/12/10 06:48:06;;;;;;;4.60;1.40;;;25.20;46.00;;;;;;4125768;28;20087;-41
2022/12/10 06:50:28;;;;;;;6.75;1.60;;;25.10;46.10;;;;;;4125437;28;20042;-43
2022/12/10 06:52:51;;;;;;;5.60;1.63;;;25.10;46.30;;;;;;4124471;28;20037;-42
2022/12/10 06:55:14;;;;;;;3.50;1.23;;;25.10;46.20;;;;;;4119525;28;20084;-41
2022/12/10 06:57:36;;;;;;;4.85;1.88;;;25.10;46.00;;;;;;4120141;28;20042;-43
2022/12/10 06:59:59;;;;;;;5.90;1.85;;;25.10;45.90;;;;;;4119572;28;20038;-41
2022/12/10 07:02:21;;;;;;;3.38;1.70;;;25.10;45.80;;;;;;4122980;28;20044;-42
2022/12/10 07:04:44;;;;;;;4.63;1.73;;;25.10;46.10;;;;;;4124126;28;20121;-45
2022/12/10 07:07:07;;;;;;;4.07;1.30;;;25.10;46.20;;;;;;4120441;28;20057;-43
2022/12/10 07:09:31;;;;;;;5.07;1.40;;;25.10;46.40;;;;;;4118691;28;20149;-47
2022/12/10 07:11:54;;;;;;;4.93;1.60;;;25.00;46.10;;;;;;4117562;28;20050;-46
2022/12/10 07:14:19;;;;;;;2.10;0.95;;;25.00;46.10;;;;;;4116632;28;20072;-47
2022/12/10 07:16:42;;;;;;;2.05;0.93;;;24.80;46.20;;;;;;4117219;28;20676;-44
2022/12/10 07:19:05;;;;;;;4.85;1.77;;;24.90;46.40;;;;;;4118655;28;20040;-43
2022/12/10 07:21:33;;;;;;;2.85;1.23;;;24.80;46.50;;;;;;4117225;28;20038;-48
2022/12/10 07:23:59;;;;;;;4.15;1.20;;;24.80;46.60;;;;;;4118100;28;20026;-47
2022/12/10 07:26:22;;;;;;;2.85;1.13;;;24.80;46.60;;;;;;4118264;28;20034;-43
2022/12/10 07:28:45;;;;;;;2.78;1.23;;;24.80;46.70;;;;;;4117065;28;20564;-44
2022/12/10 07:31:09;;;;;;;3.80;1.50;;;24.80;46.80;;;;;;4120879;28;20553;-48
2022/12/10 07:33:32;;;;;;;3.90;1.35;;;24.80;47.00;;;;;;4120746;28;20113;-44
2022/12/10 07:35:54;;;;;;;2.00;0.93;;;24.80;47.10;;;;;;4120839;28;20066;-45
2022/12/10 07:38:17;;;;;;;4.07;1.25;;;24.80;47.30;;;;;;4123906;28;20465;-48
2022/12/10 07:40:39;;;;;;;3.22;1.23;;;24.80;47.10;;;;;;4124267;28;20049;-45
2022/12/10 07:43:02;;;;;;;3.95;1.38;;;24.80;47.20;;;;;;4123511;28;20064;-43
2022/12/10 07:45:24;;;;;;;3.40;1.08;;;24.80;47.30;;;;;;4116609;28;20424;-49
2022/12/10 07:47:47;;;;;;;7.60;1.33;;;24.80;47.60;;;;;;4124787;28;20392;-42
2022/12/10 07:50:09;;;;;;;3.63;1.42;;;24.80;48.10;;;;;;4123760;28;20045;-44
2022/12/10 07:52:32;;;;;;;2.97;1.10;;;24.70;47.70;;;;;;4120803;28;20123;-43
2022/12/10 07:54:55;;;;;;;2.15;0.75;;;24.80;47.60;;;;;;4124012;28;20133;-45
2022/12/10 07:57:17;;;;;;;3.15;1.05;;;24.80;47.60;;;;;;4121379;28;20475;-44
2022/12/10 07:59:40;;;;;;;3.17;1.30;;;24.70;47.70;;;;;;4121983;28;20134;-43
2022/12/10 08:02:02;;;;;;;3.05;1.30;;;24.70;47.60;;;;;;4124257;28;20442;-47
2022/12/10 08:04:28;;;;;;;2.33;1.13;;;24.70;47.60;;;;;;4119010;28;20557;-42
2022/12/10 08:06:54;;;;;;;9.25;5.68;;;24.60;47.80;;;;;;4119631;28;20045;-43
2022/12/10 08:09:16;;;;;;;20.65;13.50;;;24.60;47.80;;;;;;4119222;28;20042;-44
2022/12/10 08:11:39;;;;;;;10.73;7.45;;;24.60;47.80;;;;;;4117161;28;20050;-44
2022/12/10 08:14:01;;;;;;;19.40;13.55;;;24.50;48.00;;;;;;4116721;28;20104;-44
2022/12/10 08:16:26;;;;;;;14.13;9.30;;;24.50;47.90;;;;;;4117201;28;20050;-44
2022/12/10 08:18:49;;;;;;;10.93;7.70;;;24.60;48.00;;;;;;4118001;28;20058;-45
2022/12/10 08:21:16;;;;;;;13.23;8.20;;;24.60;47.90;;;;;;4118152;28;20168;-47
2022/12/10 08:23:40;;;;;;;13.40;10.02;;;24.60;47.90;;;;;;4118965;28;20038;-43
2022/12/10 08:26:11;;;;;;;19.20;15.38;;;24.60;48.00;;;;;;4117118;28;20131;-48
2022/12/10 08:28:34;;;;;;;18.80;13.18;;;24.60;47.90;;;;;;4115473;28;20042;-44
2022/12/10 08:30:57;;;;;;;13.00;9.15;;;24.60;48.00;;;;;;4119877;28;20573;-47
2022/12/10 08:33:19;;;;;;;15.73;11.30;;;24.50;48.00;;;;;;4119593;28;20056;-48
2022/12/10 08:35:42;;;;;;;13.75;10.85;;;24.50;48.10;;;;;;4119859;28;20050;-48
2022/12/10 08:38:05;;;;;;;14.95;11.23;;;24.50;48.20;;;;;;4117127;28;20045;-43
2022/12/10 08:40:27;;;;;;;10.15;7.57;;;24.50;48.10;;;;;;4120098;28;20042;-44
2022/12/10 08:42:51;;;;;;;10.95;8.10;;;24.50;48.20;;;;;;4118254;28;20049;-44
2022/12/10 08:45:14;;;;;;;17.83;14.38;;;24.50;48.30;;;;;;4117520;28;20124;-42
2022/12/10 08:47:36;;;;;;;20.35;14.23;;;24.50;48.20;;;;;;4117200;28;20113;-46
2022/12/10 08:49:59;;;;;;;19.10;13.27;;;24.50;48.30;;;;;;4118756;28;20117;-44
2022/12/10 08:52:21;;;;;;;15.80;11.13;;;24.50;48.40;;;;;;4117903;28;20149;-45
2022/12/10 08:54:44;;;;;;;13.73;9.05;;;24.50;48.30;;;;;;4119267;28;20046;-43
2022/12/10 08:57:07;;;;;;;15.55;9.95;;;24.40;48.20;;;;;;4118225;28;20034;-43
2022/12/10 08:59:29;;;;;;;18.60;12.60;;;24.40;48.20;;;;;;4118118;28;20155;-43
2022/12/10 09:01:54;;;;;;;15.02;11.45;;;24.40;48.40;;;;;;4119040;28;20498;-41
2022/12/10 09:04:17;;;;;;;16.38;11.82;;;24.30;48.20;;;;;;4118967;28;20046;-46
2022/12/10 09:06:39;;;;;;;15.35;10.77;;;24.30;48.30;;;;;;4117792;28;20030;-47
2022/12/10 09:09:03;;;;;;;14.52;9.70;;;24.30;48.30;;;;;;4118233;28;20034;-43
2022/12/10 09:11:29;;;;;;;23.40;15.98;;;24.30;48.40;;;;;;4120708;28;20462;-42
2022/12/10 09:13:51;;;;;;;23.05;15.32;;;24.30;48.40;;;;;;4121916;28;20042;-46
2022/12/10 09:16:14;;;;;;;19.40;13.23;;;24.30;48.40;;;;;;4119234;28;20089;-45
2022/12/10 09:18:37;;;;;;;21.80;15.38;;;24.30;48.40;;;;;;4121990;28;20070;-48
2022/12/10 09:21:00;;;;;;;24.33;16.15;;;24.30;48.40;;;;;;4120031;28;20565;-44
2022/12/10 09:25:36;;;;;;;17.08;12.75;;;24.30;48.40;;;;;;4131178;28;20053;-45
2022/12/10 09:27:59;;;;;;;18.73;12.48;;;24.30;48.50;;;;;;4147582;28;20045;-47
2022/12/10 09:30:21;;;;;;;16.55;11.20;;;24.30;48.40;;;;;;4138461;28;20104;-43
2022/12/10 09:32:44;;;;;;;16.55;10.50;;;24.30;48.40;;;;;;4147500;28;20123;-45
2022/12/10 09:35:07;;;;;;;16.33;10.57;;;24.20;48.40;;;;;;4133787;28;20046;-45
2022/12/10 09:37:29;;;;;;;19.55;12.50;;;24.20;48.40;;;;;;4131392;28;20034;-47
2022/12/10 09:39:52;;;;;;;19.42;12.30;;;24.20;48.50;;;;;;4162291;22;20077;-49
2022/12/10 09:42:22;;;;;;;18.92;13.05;;;24.30;48.60;;;;;;4129181;28;20205;-51
2022/12/10 09:45:11;;;;;;;17.48;12.77;;;24.20;48.50;;;;;;4134854;28;20127;-51
2022/12/10 09:48:00;;;;;;;18.65;12.90;;;24.20;48.50;;;;;;4132791;28;20494;-50
2022/12/10 09:50:33;;;;;;;19.60;12.75;;;24.30;48.60;;;;;;4133220;28;20037;-47
2022/12/10 09:52:57;;;;;;;15.48;9.70;;;24.30;48.50;;;;;;4133439;28;20072;-49
2022/12/10 09:57:51;;;;;;;13.00;8.63;;;24.20;48.50;;;;;;4127629;28;20100;-51
2022/12/10 10:00:22;;;;;;;13.63;8.70;;;24.20;48.50;;;;;;4130460;28;20034;-50
2022/12/10 10:02:46;;;;;;;12.25;8.15;;;24.20;48.60;;;;;;4126879;28;20469;-48
2022/12/10 10:05:08;;;;;;;11.95;7.60;;;24.20;48.60;;;;;;4129988;28;20038;-46
2022/12/10 10:07:34;;;;;;;11.50;7.07;;;24.20;48.60;;;;;;4130429;28;20351;-49
2022/12/10 10:10:04;;;;;;;9.55;6.38;;;24.20;48.60;;;;;;4134023;28;20322;-46
2022/12/10 10:12:33;;;;;;;8.82;5.75;;;24.20;48.60;;;;;;4125998;28;20038;-50
2022/12/10 10:14:56;;;;;;;10.23;5.78;;;24.20;48.80;;;;;;4129149;28;20176;-50
2022/12/10 10:17:32;;;;;;;8.15;4.72;;;24.10;48.90;;;;;;4125386;28;20176;-45
2022/12/10 10:19:55;;;;;;;7.90;4.20;;;24.10;48.80;;;;;;4117569;28;20066;-51
2022/12/10 10:22:17;;;;;;;8.55;4.18;;;24.10;48.80;;;;;;4118464;28;20077;-51
2022/12/10 10:24:47;;;;;;;7.40;3.85;;;24.10;48.80;;;;;;4118072;28;20061;-47
2022/12/10 10:27:17;;;;;;;6.82;3.70;;;24.10;48.80;;;;;;4162580;23;20395;-49
2022/12/10 10:29:40;;;;;;;6.35;3.67;;;24.10;48.90;;;;;;4132878;28;20120;-46
2022/12/10 10:32:17;;;;;;;6.57;3.25;;;24.10;48.90;;;;;;4131875;28;20062;-52
2022/12/10 10:34:40;;;;;;;7.30;3.45;;;24.00;49.00;;;;;;4138213;28;20044;-52
2022/12/10 10:37:04;;;;;;;4.00;2.83;;;24.00;49.20;;;;;;4141165;28;20038;-50
2022/12/10 10:39:35;;;;;;;6.50;2.80;;;24.10;49.00;;;;;;4136462;28;20352;-54
2022/12/10 10:42:00;;;;;;;5.93;3.00;;;24.00;49.00;;;;;;4136468;28;20119;-48
2022/12/10 10:44:26;;;;;;;7.32;3.20;;;24.00;49.10;;;;;;4138409;28;20053;-50
2022/12/10 10:46:51;;;;;;;6.88;3.30;;;24.00;49.00;;;;;;4138994;28;20048;-49
2022/12/10 10:49:24;;;;;;;4.70;2.53;;;24.00;49.10;;;;;;4145549;28;20150;-51
2022/12/10 10:51:47;;;;;;;5.13;2.45;;;24.00;49.20;;;;;;4135338;28;20080;-53
2022/12/10 10:54:10;;;;;;;3.90;2.53;;;24.00;49.20;;;;;;4137229;28;20042;-50
2022/12/10 10:56:43;;;;;;;5.28;2.50;;;24.00;49.30;;;;;;4156606;22;20056;-52
2022/12/10 10:59:19;;;;;;;3.63;2.30;;;24.00;49.30;;;;;;4129560;28;20124;-49
2022/12/10 11:02:05;;;;;;;5.40;2.22;;;24.00;49.30;;;;;;4132495;28;20442;-52
2022/12/10 11:04:37;;;;;;;5.65;2.60;;;24.00;49.20;;;;;;4134706;28;20482;-50
2022/12/10 11:07:03;;;;;;;5.22;2.63;;;24.00;49.40;;;;;;4134624;28;20038;-51
2022/12/10 11:09:29;;;;;;;4.35;2.30;;;23.90;49.30;;;;;;4132422;28;20033;-51
2022/12/10 11:12:41;;;;;;;6.40;2.40;;;23.90;49.30;;;;;;4129042;28;20034;-49
2022/12/10 11:15:24;;;;;;;3.10;1.85;;;23.90;49.40;;;;;;4130374;28;20391;-53
2022/12/10 11:17:52;;;;;;;6.18;2.30;;;23.90;49.40;;;;;;4129230;28;20100;-52
2022/12/10 11:20:24;;;;;;;6.15;1.98;;;23.90;49.40;;;;;;4124601;28;20652;-51
2022/12/10 11:23:08;;;;;;;4.55;1.95;;;23.90;49.50;;;;;;4119955;28;20046;-51
2022/12/10 11:25:58;;;;;;;3.00;1.70;;;23.90;49.50;;;;;;4150015;23;20517;-54
2022/12/10 11:28:39;;;;;;;3.95;1.75;;;23.80;49.50;;;;;;4135817;28;20061;-53
2022/12/10 11:31:22;;;;;;;5.28;1.75;;;23.80;49.40;;;;;;4134358;28;20096;-53
2022/12/10 11:34:04;;;;;;;3.58;1.60;;;23.80;49.50;;;;;;4134194;28;20081;-51
2022/12/10 11:36:35;;;;;;;2.80;1.42;;;23.80;49.60;;;;;;4132675;28;20100;-53
2022/12/10 11:39:28;;;;;;;5.28;1.77;;;23.80;49.60;;;;;;4161252;22;20096;-51
2022/12/10 11:42:19;;;;;;;4.88;1.77;;;23.80;49.60;;;;;;4122048;28;20049;-52
2022/12/10 11:44:52;;;;;;;6.03;2.83;;;23.80;49.70;;;;;;4124188;28;20102;-52
2022/12/10 11:47:51;;;;;;;10.07;2.00;;;23.80;49.70;;;;;;4118530;28;20046;-53
2022/12/10 11:50:35;;;;;;;5.88;1.83;;;23.80;50.30;;;;;;4100998;28;20042;-58
2022/12/10 11:53:38;;;;;;;6.20;1.88;;;23.80;50.10;;;;;;4115707;28;20161;-59
2022/12/10 11:56:24;;;;;;;5.50;1.70;;;23.80;49.90;;;;;;4109515;28;20050;-56
2022/12/10 11:59:14;;;;;;;8.32;2.55;;;23.80;49.80;;;;;;4155344;23;20065;-53
2022/12/10 12:01:51;;;;;;;5.72;1.80;;;23.80;49.90;;;;;;4151747;28;20041;-53
2022/12/10 12:04:48;;;;;;;7.63;1.58;;;23.90;50.20;;;;;;4151584;28;20046;-54
2022/12/10 12:07:28;;;;;;;6.60;1.40;;;23.90;50.40;;;;;;4150260;28;20052;-49
2022/12/10 12:10:16;;;;;;;16.65;1.55;;;23.90;51.30;;;;;;4151622;28;20038;-51
2022/12/10 12:15:19;;;;;;;3.55;1.20;;;24.00;50.70;;;;;;4127372;28;20054;-43
2022/12/10 12:17:48;;;;;;;9.30;1.60;;;24.00;50.70;;;;;;4128099;28;20047;-45
2022/12/10 12:20:28;;;;;;;4.57;0.80;;;24.00;50.80;;;;;;4124414;28;20062;-47
2022/12/10 12:23:14;;;;;;;6.32;1.20;;;24.00;50.70;;;;;;4126936;28;20042;-43
2022/12/10 12:25:42;;;;;;;5.43;1.20;;;24.00;50.90;;;;;;4128857;28;20026;-47
2022/12/10 12:28:21;;;;;;;5.57;1.10;;;24.10;51.00;;;;;;4132538;28;20041;-45
2022/12/10 12:30:47;;;;;;;7.07;1.10;;;24.10;51.00;;;;;;4127280;28;20455;-44
2022/12/10 12:33:23;;;;;;;3.35;1.08;;;24.10;51.00;;;;;;4131311;28;20193;-46
2022/12/10 12:35:54;;;;;;;3.65;1.52;;;24.10;51.00;;;;;;4131155;28;20532;-44
2022/12/10 12:38:36;;;;;;;3.28;1.00;;;24.10;51.00;;;;;;4128930;28;20038;-43
2022/12/10 12:41:05;;;;;;;6.75;1.05;;;24.10;51.00;;;;;;4122334;28;20129;-43
2022/12/10 12:43:39;;;;;;;4.22;1.13;;;24.10;51.00;;;;;;4129371;28;20401;-45
2022/12/10 12:46:25;;;;;;;4.97;1.02;;;24.10;51.00;;;;;;4133635;28;20375;-46
2022/12/10 12:49:09;;;;;;;3.47;0.88;;;24.10;51.00;;;;;;4135253;28;20124;-47
2022/12/10 12:51:54;;;;;;;3.58;1.30;;;24.10;51.20;;;;;;4146104;28;20041;-47
2022/12/10 12:54:16;;;;;;;6.15;1.30;;;24.20;51.30;;;;;;4134140;28;20031;-44
2022/12/10 12:56:59;;;;;;;2.40;0.90;;;24.20;51.30;;;;;;4134312;28;20068;-43
2022/12/10 13:00:03;;;;;;;8.05;1.98;;;24.20;51.30;;;;;;4139525;28;20430;-47
2022/12/10 13:02:50;;;;;;;6.70;1.63;;;24.20;51.30;;;;;;4139873;28;20176;-43
2022/12/10 13:05:31;;;;;;;3.80;1.02;;;24.20;51.10;;;;;;4138109;28;20076;-43